Flight Track Log - Related Links

Times and Time Zones

All times are in EDT time to prevent confusion due to time zone crossing. See the NDU48 flight status page for this flight to view local times or setup timezone preferences in your user account.

Time Position Orientation Groundspeed Altitude Reporting Facility
EDT Latitude Longitude Course Direction KTS MPH feet Rate Location/Type
Fri 11:31:00 AM 46.2450 -96.1492 338° Northwest 102 117 6,000  Level Minneapolis Center
Fri 11:32:01 AM 46.2522 -96.1786 290° West 103 119 6,000  Level Minneapolis Center
Fri 11:33:03 AM 46.2800 -96.1889 346° North 99 114 6,000  Level Minneapolis Center
Fri 11:34:05 AM 46.3069 -96.2075 334° Northwest 104 120 6,000 49 Level Minneapolis Center
Fri 11:35:06 AM 46.3339 -96.2258 335° Northwest 105 121 6,100 49 Climbing Minneapolis Center
Fri 11:36:00 AM 46.4398 -96.2439 338° Northwest  Level FlightAware Approximate
Fri 11:36:08 AM 46.3600 -96.2369 344° North 101 116 6,100  Level Minneapolis Center
Fri 11:37:09 AM 46.3867 -96.2542 336° Northwest 99 114 6,100  Level Minneapolis Center
Fri 11:38:11 AM 46.4153 -96.2692 340° North 107 123 6,100  Level Minneapolis Center
Fri 11:39:13 AM 46.4447 -96.2872 337° Northwest 108 124 6,100  Level Minneapolis Center
Fri 11:40:14 AM 46.4728 -96.3042 337° Northwest 106 122 6,100 -49 Level Minneapolis Center
Fri 11:41:16 AM 46.4986 -96.3172 341° North 103 119 6,000  Descending Minneapolis Center
Fri 11:42:18 AM 46.5272 -96.3347 337° Northwest 104 120 6,100 49 Climbing Minneapolis Center
Fri 11:43:19 AM 46.5564 -96.3539 336° Northwest 110 127 6,100  Level Minneapolis Center
Fri 11:44:21 AM 46.5853 -96.3661 344° North 104 120 6,100  Level Minneapolis Center
Fri 11:45:23 AM 46.6131 -96.3819 339° North 108 124 6,100  Level Minneapolis Center
Fri 11:46:25 AM 46.6422 -96.4036 333° Northwest 114 131 6,100  Level Minneapolis Center
Fri 11:47:26 AM 46.6725 -96.4125 349° North 107 123 6,100 49 Level Minneapolis Center
Fri 11:48:28 AM 46.7011 -96.4350 332° Northwest 114 131 6,200 48 Climbing Minneapolis Center
Fri 11:49:30 AM 46.7306 -96.4522 338° Northwest 110 127 6,200 -49 Level Minneapolis Center
Fri 11:50:31 AM 46.7586 -96.4678 339° North 111 128 6,100 -49 Descending Minneapolis Center
Fri 11:51:33 AM 46.7892 -96.4833 341° North 112 129 6,100 -48 Level Minneapolis Center
Fri 11:52:35 AM 46.8194 -96.5053 334° Northwest 115 132 6,000 -49 Descending Minneapolis Center
Fri 11:53:36 AM 46.8497 -96.5197 342° North 110 127 6,000 44 Level Minneapolis Center
Fri 11:54:50 AM 46.8839 -96.5406 337° Northwest 110 127 6,100 41 Climbing Minneapolis Center
Fri 11:56:04 AM 46.9139 -96.5594 337° Northwest 114 131 6,100  Level Minneapolis Center
Fri 11:57:06 AM 46.9500 -96.5775 341° North 112 129 6,100  Level Minneapolis Center
Fri 11:58:08 AM 46.9792 -96.5933 340° North 107 123 6,100 49 Level Minneapolis Center
Fri 11:59:09 AM 47.0078 -96.6131 335° Northwest 110 127 6,200  Climbing Minneapolis Center
Fri 12:00:11 PM 47.0314 -96.6258 340° North 112 129 6,100 -48 Descending Minneapolis Center
Fri 12:01:13 PM 47.0658 -96.6464 338° Northwest 110 127 6,100  Level Minneapolis Center
Fri 12:02:14 PM 47.0961 -96.6631 339° North 111 128 6,100  Level Minneapolis Center
Fri 12:03:16 PM 47.1250 -96.6839 334° Northwest 111 128 6,100  Level Minneapolis Center
Fri 12:04:17 PM 47.1561 -96.7000 341° North 112 129 6,100  Level Minneapolis Center
Fri 12:04:46 PM 47.1703 -96.7094 336° Northwest 111 128 6,100  Level Minneapolis Center
Fri 12:05:35 PM 47.1919 -96.7211 340° North 110 127 6,100 -56 Level Minneapolis Center
Fri 12:06:33 PM 47.2211 -96.7361 341° North 111 128 6,000 -50 Descending Minneapolis Center
Fri 12:07:35 PM 47.2517 -96.7542 338° Northwest 113 130 6,000 -146 Level Minneapolis Center
Fri 12:08:36 PM 47.2783 -96.7739 333° Northwest 112 129 5,700 -372 Descending Minneapolis Center
Fri 12:09:44 PM 47.3075 -96.8064 323° Northwest 117 135 5,200 -537 Descending Minneapolis Center
Fri 12:10:39 PM 47.3383 -96.8261 337° Northwest 120 138 4,600 -606 Descending Minneapolis Center
Fri 12:11:33 PM 47.3614 -96.8531 322° Northwest 123 142 4,100 -405 Descending Minneapolis Center
Fri 12:11:53 PM 47.3719 -96.8575 344° North 122 140 4,100 -73 Level Minneapolis Center
Fri 12:12:55 PM 47.4000 -96.8808 331° Northwest 115 132 4,000 -48 Descending Minneapolis Center
Fri 12:13:57 PM 47.4256 -96.9056 327° Northwest 107 123 4,000 -153 Level Minneapolis Center
Fri 12:14:53 PM 47.4467 -96.9256 327° Northwest 106 122 3,700 -514 Descending Minneapolis Center
Fri 12:15:42 PM 47.4708 -96.9431 334° Northwest 113 130 3,100 -716 Descending Minneapolis Center
Fri 12:16:00 PM 47.4831 -96.9481 345° North 115 132 2,900 -300 Descending Minneapolis Center
Fri 12:16:42 PM 47.4975 -96.9633 324° Northwest 103 119 2,800 -97 Descending Minneapolis Center
Fri 12:17:02 PM 47.5033 -96.9706 320° Northwest 96 110 2,800  Level Minneapolis Center
Fri 12:18:04 PM 47.5272 -97.0014 319° Northwest 107 123 2,800 56 Level Minneapolis Center
Fri 12:18:50 PM 47.5439 -97.0208 322° Northwest 107 123 2,900 98 Climbing Minneapolis Center
Fri 12:19:05 PM 47.5525 -97.0289 328° Northwest 108 124 2,900  Level Minneapolis Center
Fri 12:20:07 PM 47.5772 -97.0561 323° Northwest 106 122 2,900 -48 Level Minneapolis Center
Fri 12:21:09 PM 47.5994 -97.0822 322° Northwest 106 122 2,800  Descending Minneapolis Center
Fri 12:22:10 PM 47.6233 -97.1117 320° Northwest 106 122 2,900 50 Climbing Minneapolis Center
Fri 12:23:10 PM 47.6486 -97.1339 329° Northwest 104 120 2,900 -62 Level Minneapolis Center
Fri 12:23:47 PM 47.6639 -97.1439 336° Northwest 103 119 2,800 -94 Descending Minneapolis Center
Fri 12:24:14 PM 47.6761 -97.1544 330° Northwest 101 116 2,800 98 Level Minneapolis Center
Fri 12:24:48 PM 47.6886 -97.1647 331° Northwest 99 114 2,900  Climbing Minneapolis Center
Fri 12:25:15 PM 47.7003 -97.1758 327° Northwest 97 112 2,800  Descending Minneapolis Center
Fri 12:25:54 PM 47.7150 -97.1853 337° Northwest 103 119 2,900 97 Climbing Minneapolis Center
Fri 12:26:17 PM 47.7258 -97.1861 357° North 99 114 2,900 90 Level Minneapolis Center
Fri 12:27:01 PM 47.7447 -97.1900 352° North 103 119 3,000  Climbing Minneapolis Center
Fri 12:27:19 PM 47.7511 -97.1883 10° North 99 114 2,900 -197 Descending Minneapolis Center
Fri 12:28:02 PM 47.7736 -97.1822 10° North 103 119 2,800 -98 Descending Minneapolis Center
Fri 12:28:20 PM 47.7786 -97.1828 356° North 99 114 2,800  Level Minneapolis Center
Fri 12:28:57 PM 47.8008 -97.1839 358° North 106 122 2,800 -194 Level Minneapolis Center
Fri 12:29:22 PM 47.8078 -97.1842 358° North 101 116 2,600 -222 Descending Minneapolis Center
Fri 12:29:51 PM 47.8281 -97.1828 North 102 117 2,600  Level Minneapolis Center
Fri 12:30:24 PM 47.8411 -97.1853 353° North 102 117 2,600  Level Minneapolis Center
Fri 12:30:46 PM 47.8489 -97.1825 13° North 91 105 2,600 -197 Level Minneapolis Center
Fri 12:31:25 PM 47.8642 -97.1844 355° North 95 109 2,400 -380 Descending Minneapolis Center
Fri 12:32:05 PM 47.8781 -97.1808 10° North 83 96 2,100 -484 Descending Minneapolis Center
Fri 12:32:27 PM 47.8850 -97.1842 342° North 86 99 1,900 -400 Descending Minneapolis Center
Fri 12:33:05 PM 47.9011 -97.1803 North 79 91 1,700 -387 Descending Minneapolis Center
Fri 12:33:29 PM 47.9064 -97.1822 346° North 81 93 1,500 -393 Descending Minneapolis Center
Fri 12:34:06 PM 47.9203 -97.1836 356° North 75 86 1,300 -295 Descending Minneapolis Center
Fri 12:34:30 PM 47.9294 -97.1856 352° North 79 91 1,200 -250 Descending Minneapolis Center

Login

Don't have an account? Register now (free) for customized features, flight alerts, and more!